Augusta, Missouri
Current Conditions -  °F | °C
As of 5:55 PM on Friday 28 Nov 2014 (Local Time) from KFYG Reporting Station
Clear Clear  
Wind Chill: 44°   Ceiling: Unl
Heat Index: 48°   Visibility: 10mi
Dew Point: 34°   Wind: 9mph
Humidity: 57%   Direction: 140°SE
Pressure: 29.91"   Gusts: NA
Location:  38.57°N, 90.88°W
Report Text: KFYG 282355Z AUTO 14008KT 10SM CLR 09/01 A2991 RMK AO2
Loading
Personal Weather Stations






























Interactive Weather Map New forecast layout! Learn more

10-Day Weather Forecast

Advertisements
Track Severe Weather on mobile